EPBY

Bydgoszcz Ignacy Jan Paderewski Airport

Bydgoszcz, Poland
METAR EPBY 211500Z 30017KT 270V330 CAVOK 19/M01 Q1017
Observed Flight Rules
Apr-21 @ 15:00 UTC (34 minutes ago) Visual Flight Rules
Wind Visibility Clouds
300° at 17 knots 10,000+ meters
  • Clear skies
Temperatures Readings
Current 19°C / 66°F
Dewpoint -1°C / 30°F
Humidity 26%
Altimeter 30.03" Hg
Pressure 1017 hPa
Elevation 71
METAR EPBY 211500Z 30017KT 270V330 CAVOK 19/M01 Q1017
Observed Flight Rules
Apr-21 @ 15:00 UTC
(34 minutes ago)
VFR
Wind Visibility
300° at 17 knots 10,000+ meters
Clouds
  • Clear skies
Temperature Dewpoint
19°C / 66°F -1°C / 30°F
Humidity Altimeter Pressure
26% 30.03" Hg 1017 hPa